createdAt,value
2023-04-11T00:02:31.930Z,0.20
2023-04-11T00:05:26.554Z,0.30
2023-04-11T00:08:20.769Z,0.45
2023-04-11T00:11:15.107Z,0.30
2023-04-11T00:14:10.091Z,0.30
2023-04-11T00:17:04.340Z,0.43
2023-04-11T00:19:59.530Z,0.30
2023-04-11T00:22:55.185Z,0.30
2023-04-11T00:25:49.350Z,0.40
2023-04-11T00:28:43.825Z,0.35
2023-04-11T00:31:38.029Z,0.38
2023-04-11T00:34:33.304Z,0.32
2023-04-11T00:37:27.652Z,0.30
2023-04-11T00:40:22.063Z,0.35
2023-04-11T00:43:16.249Z,0.30
2023-04-11T00:46:10.574Z,0.60
2023-04-11T00:49:04.910Z,0.45
2023-04-11T00:51:59.362Z,0.32
2023-04-11T00:54:53.652Z,0.35
2023-04-11T00:57:47.985Z,0.40
2023-04-11T01:00:42.667Z,0.30
2023-04-11T01:03:40.777Z,0.47
2023-04-11T01:06:35.666Z,0.30
2023-04-11T01:09:31.486Z,0.38
2023-04-11T01:12:26.312Z,0.50
2023-04-11T01:15:20.609Z,0.30
2023-04-11T01:18:14.920Z,0.30
2023-04-11T01:21:09.480Z,0.35
2023-04-11T01:24:04.863Z,0.57
2023-04-11T01:26:59.313Z,0.30
2023-04-11T01:29:53.413Z,0.40
2023-04-11T01:32:47.682Z,0.63
2023-04-11T01:35:42.035Z,0.20
2023-04-11T01:38:36.459Z,0.30
2023-04-11T01:41:32.620Z,0.20
2023-04-11T01:44:27.979Z,0.40
2023-04-11T01:47:22.257Z,0.30
2023-04-11T01:50:16.701Z,0.22
2023-04-11T01:53:10.838Z,0.28
2023-04-11T01:56:05.145Z,0.30
2023-04-11T01:59:02.494Z,0.17
2023-04-11T02:01:56.849Z,0.28
2023-04-11T02:04:51.069Z,0.30
2023-04-11T02:07:46.265Z,0.20
2023-04-11T02:10:40.566Z,0.30
2023-04-11T02:13:34.731Z,0.30
2023-04-11T02:16:31.044Z,0.38
2023-04-11T02:19:27.136Z,0.65
2023-04-11T02:22:21.415Z,0.30
2023-04-11T02:25:15.964Z,0.50
2023-04-11T02:28:10.257Z,0.30
2023-04-11T02:31:05.585Z,0.30
2023-04-11T02:33:59.914Z,0.17
2023-04-11T02:36:56.068Z,0.40
2023-04-11T02:39:50.371Z,0.30
2023-04-11T02:42:44.746Z,0.30
2023-04-11T02:45:38.972Z,0.20
2023-04-11T02:48:33.215Z,0.30
2023-04-11T02:51:28.412Z,0.40
2023-04-11T02:54:25.440Z,0.20
2023-04-11T02:57:20.047Z,0.20
2023-04-11T03:00:14.720Z,0.20
2023-04-11T03:03:09.117Z,0.22
2023-04-11T03:06:03.386Z,0.28
2023-04-11T03:08:58.183Z,0.28
2023-04-11T03:11:52.883Z,0.25
2023-04-11T03:14:47.439Z,0.30
2023-04-11T03:17:41.782Z,0.32
2023-04-11T03:20:36.187Z,0.30
2023-04-11T03:23:30.461Z,0.43
2023-04-11T03:26:28.258Z,0.43
2023-04-11T03:29:22.579Z,0.52
2023-04-11T03:32:17.547Z,0.30
2023-04-11T03:35:12.039Z,0.55
2023-04-11T03:38:06.600Z,0.68
2023-04-11T03:41:00.859Z,0.88
2023-04-11T03:43:55.080Z,0.32
2023-04-11T03:46:49.342Z,0.50
2023-04-11T03:49:43.576Z,0.57
2023-04-11T03:52:38.350Z,0.63
2023-04-11T03:55:32.601Z,0.88
2023-04-11T03:58:27.622Z,0.90
2023-04-11T04:01:21.883Z,1.10
2023-04-11T04:04:16.188Z,1.67
2023-04-11T04:07:11.272Z,1.63
2023-04-11T04:10:06.360Z,1.20
2023-04-11T04:13:00.708Z,1.20
2023-04-11T04:15:55.102Z,1.48
2023-04-11T04:18:49.614Z,1.40
2023-04-11T04:21:44.721Z,1.10
2023-04-11T04:24:43.155Z,1.20
2023-04-11T04:27:37.554Z,1.00
2023-04-11T04:30:31.776Z,1.05
2023-04-11T04:33:27.649Z,1.20
2023-04-11T04:36:25.634Z,1.10
2023-04-11T04:39:20.870Z,1.10
2023-04-11T04:42:15.208Z,1.23
2023-04-11T04:45:10.246Z,0.90
2023-04-11T04:48:04.594Z,1.05
2023-04-11T04:50:58.884Z,0.90
2023-04-11T04:53:53.483Z,1.20
2023-04-11T04:56:49.430Z,0.90
2023-04-11T04:59:43.641Z,0.98
2023-04-11T05:02:39.320Z,1.00
2023-04-11T05:05:34.503Z,0.90
2023-04-11T05:08:28.715Z,0.90
2023-04-11T05:11:22.973Z,1.20
2023-04-11T05:14:17.548Z,0.90
2023-04-11T05:17:11.742Z,0.80
2023-04-11T05:20:10.276Z,0.80
2023-04-11T05:23:04.433Z,0.80
2023-04-11T05:25:58.649Z,0.43
2023-04-11T05:28:52.812Z,0.63
2023-04-11T05:31:47.010Z,0.45
2023-04-11T05:34:55.835Z,0.98
2023-04-11T05:37:51.723Z,0.40
2023-04-11T05:40:45.897Z,0.30
2023-04-11T05:43:40.525Z,0.40
2023-04-11T05:46:38.313Z,0.22
2023-04-11T05:49:32.555Z,0.40
2023-04-11T05:52:26.839Z,0.70
2023-04-11T05:55:21.099Z,0.60
2023-04-11T05:58:15.382Z,0.50
2023-04-11T06:01:13.553Z,0.50
2023-04-11T06:04:07.750Z,0.50
2023-04-11T06:07:03.730Z,0.70
2023-04-11T06:09:57.919Z,0.55
2023-04-11T06:12:52.325Z,0.43
2023-04-11T06:15:46.713Z,0.30
2023-04-11T06:18:41.259Z,0.75
2023-04-11T06:21:35.382Z,0.63
2023-04-11T06:24:40.766Z,0.47
2023-04-11T06:27:35.173Z,0.60
2023-04-11T06:30:29.463Z,0.40
2023-04-11T06:33:23.695Z,0.45
2023-04-11T06:36:17.920Z,0.60
2023-04-11T06:39:12.137Z,0.65
2023-04-11T06:42:06.680Z,0.40
2023-04-11T06:45:00.892Z,0.40
2023-04-11T06:47:55.161Z,0.40
2023-04-11T06:50:50.543Z,0.35
2023-04-11T06:53:44.809Z,0.68
2023-04-11T06:56:38.922Z,0.60
2023-04-11T06:59:33.586Z,0.50
2023-04-11T07:02:28.061Z,0.60
2023-04-11T07:05:22.454Z,0.60
2023-04-11T07:08:16.738Z,0.57
2023-04-11T07:11:11.155Z,0.60
2023-04-11T07:14:05.355Z,0.47
2023-04-11T07:16:59.590Z,0.73
2023-04-11T07:19:53.774Z,0.75
2023-04-11T07:22:48.140Z,0.60
2023-04-11T07:25:42.515Z,0.80
2023-04-11T07:28:38.874Z,0.55
2023-04-11T07:31:33.204Z,0.77
2023-04-11T07:34:27.749Z,0.40
2023-04-11T07:37:21.968Z,0.65
2023-04-11T07:40:16.726Z,0.70
2023-04-11T07:43:10.887Z,0.75
2023-04-11T07:46:05.203Z,0.90
2023-04-11T07:48:59.369Z,0.88
2023-04-11T07:51:53.618Z,0.90
2023-04-11T07:54:47.783Z,0.95
2023-04-11T07:57:41.943Z,0.60
2023-04-11T08:00:36.650Z,0.70
2023-04-11T08:03:31.459Z,0.57
2023-04-11T08:06:26.043Z,0.45
2023-04-11T08:09:20.238Z,0.77
2023-04-11T08:12:14.454Z,0.70
2023-04-11T08:15:09.132Z,0.70
2023-04-11T08:18:03.430Z,0.80
2023-04-11T08:20:57.674Z,0.40
2023-04-11T08:23:51.893Z,0.40
2023-04-11T08:26:46.289Z,0.47
2023-04-11T08:29:40.415Z,0.70
2023-04-11T08:32:34.785Z,0.57
2023-04-11T08:35:29.134Z,0.60
2023-04-11T08:38:23.475Z,0.50
2023-04-11T08:41:17.642Z,0.70
2023-04-11T08:44:14.638Z,0.50
2023-04-11T08:47:09.850Z,0.82
2023-04-11T08:50:04.879Z,0.40
2023-04-11T08:53:04.954Z,0.63
2023-04-11T08:56:00.985Z,1.00
2023-04-11T08:58:55.150Z,0.82
2023-04-11T09:01:50.953Z,0.30
2023-04-11T09:04:46.092Z,0.60
2023-04-11T09:07:53.359Z,0.50
2023-04-11T09:10:48.046Z,0.50
2023-04-11T09:13:42.368Z,0.32
2023-04-11T09:16:37.292Z,0.30
2023-04-11T09:19:35.728Z,0.40
2023-04-11T09:22:37.793Z,0.70
2023-04-11T09:25:44.809Z,0.80
2023-04-11T09:28:51.905Z,0.57
2023-04-11T09:31:47.699Z,0.60
2023-04-11T09:34:42.770Z,0.50
2023-04-11T09:37:47.957Z,0.63
2023-04-11T09:40:45.719Z,0.35
2023-04-11T09:43:59.544Z,0.43
2023-04-11T09:47:01.230Z,0.30
2023-04-11T09:49:56.660Z,0.50
2023-04-11T09:52:51.668Z,0.50
2023-04-11T09:55:46.122Z,0.50
2023-04-11T09:58:42.185Z,0.47
2023-04-11T10:01:37.234Z,0.63
2023-04-11T10:04:31.569Z,0.80
2023-04-11T10:07:26.056Z,0.57
2023-04-11T10:10:22.192Z,0.60
2023-04-11T10:13:40.777Z,0.55
2023-04-11T10:16:35.404Z,0.40
2023-04-11T10:19:29.597Z,0.52
2023-04-11T10:22:45.084Z,0.32
2023-04-11T10:25:54.589Z,0.40
2023-04-11T10:28:48.748Z,0.77
2023-04-11T10:32:17.808Z,1.08
2023-04-11T10:35:31.095Z,0.60
2023-04-11T10:38:48.786Z,0.63
2023-04-11T10:41:43.341Z,0.50
2023-04-11T10:44:37.965Z,0.60
2023-04-11T10:47:32.817Z,0.70
2023-04-11T10:50:37.762Z,1.00
2023-04-11T10:53:39.693Z,0.70
2023-04-11T10:56:50.044Z,0.68
2023-04-11T10:59:53.517Z,0.52
2023-04-11T11:02:48.249Z,1.23
2023-04-11T11:05:43.273Z,0.70
2023-04-11T11:08:44.596Z,0.60
2023-04-11T11:11:38.756Z,0.52
2023-04-11T11:14:32.968Z,0.80
2023-04-11T11:17:27.202Z,0.90
2023-04-11T11:20:21.611Z,0.70
2023-04-11T11:23:15.796Z,0.80
2023-04-11T11:26:10.044Z,0.90
2023-04-11T11:29:04.839Z,0.60
2023-04-11T11:31:59.406Z,0.60
2023-04-11T11:34:55.192Z,0.68
2023-04-11T11:37:49.408Z,0.82
2023-04-11T11:40:43.724Z,0.85
2023-04-11T11:43:38.965Z,0.95
2023-04-11T11:46:35.124Z,1.02
2023-04-11T11:49:29.344Z,0.60
2023-04-11T11:52:44.665Z,0.65
2023-04-11T11:55:38.957Z,0.77
2023-04-11T11:58:48.639Z,0.85
2023-04-11T12:01:44.654Z,0.70
2023-04-11T12:04:39.027Z,0.98
2023-04-11T12:07:34.663Z,0.95
2023-04-11T12:10:44.932Z,0.55
2023-04-11T12:13:39.103Z,0.90
2023-04-11T12:16:33.797Z,0.95
2023-04-11T12:19:29.083Z,0.80
2023-04-11T12:22:23.226Z,0.60
2023-04-11T12:25:17.514Z,0.82
2023-04-11T12:28:12.721Z,0.70
2023-04-11T12:31:07.104Z,0.60
2023-04-11T12:34:01.388Z,0.80
2023-04-11T12:36:55.571Z,0.60
2023-04-11T12:39:49.847Z,0.77
2023-04-11T12:42:56.167Z,0.75
2023-04-11T12:45:51.798Z,0.85
2023-04-11T12:48:45.978Z,0.73
2023-04-11T12:51:40.086Z,0.77
2023-04-11T12:54:34.539Z,0.77
2023-04-11T12:57:29.363Z,0.73
2023-04-11T13:00:23.749Z,0.95
2023-04-11T13:03:18.387Z,0.68
2023-04-11T13:06:12.872Z,0.85
2023-04-11T13:09:08.685Z,0.60
2023-04-11T13:12:05.884Z,1.00
2023-04-11T13:15:00.088Z,0.70
2023-04-11T13:17:54.378Z,0.65
2023-04-11T13:20:48.576Z,0.60
2023-04-11T13:23:42.783Z,0.82
2023-04-11T13:26:37.015Z,0.60
2023-04-11T13:29:31.225Z,0.60
2023-04-11T13:32:25.406Z,0.80
2023-04-11T13:35:19.627Z,0.90
2023-04-11T13:38:13.914Z,0.98
2023-04-11T13:41:08.230Z,1.38
2023-04-11T13:44:02.555Z,1.40
2023-04-11T13:46:57.170Z,0.80
2023-04-11T13:49:51.411Z,1.27
2023-04-11T13:52:45.676Z,1.00
2023-04-11T13:55:39.818Z,1.10
2023-04-11T13:58:34.235Z,1.30
2023-04-11T14:01:28.513Z,1.30
2023-04-11T14:04:22.912Z,1.10
2023-04-11T14:07:17.371Z,1.40
2023-04-11T14:10:12.125Z,0.90
2023-04-11T14:13:06.704Z,1.73
2023-04-11T14:16:09.009Z,1.95
2023-04-11T14:19:03.765Z,1.83
2023-04-11T14:21:59.041Z,1.80
2023-04-11T14:24:53.572Z,1.50
2023-04-11T14:27:48.094Z,1.48
2023-04-11T14:30:43.183Z,1.90
2023-04-11T14:33:37.464Z,1.58
2023-04-11T14:36:33.008Z,1.85
2023-04-11T14:39:27.214Z,1.60
2023-04-11T14:42:21.598Z,1.92
2023-04-11T14:45:15.808Z,1.73
2023-04-11T14:48:10.012Z,2.67
2023-04-11T14:51:08.357Z,2.10
2023-04-11T14:54:02.633Z,2.00
2023-04-11T14:56:57.400Z,1.40
2023-04-11T14:59:51.699Z,1.75
2023-04-11T15:02:49.258Z,2.08
2023-04-11T15:05:43.456Z,1.85
2023-04-11T15:08:37.643Z,1.70
2023-04-11T15:11:32.205Z,1.40
2023-04-11T15:14:30.563Z,1.20
2023-04-11T15:17:24.765Z,1.13
2023-04-11T15:20:20.691Z,1.17
2023-04-11T15:23:14.870Z,1.30
2023-04-11T15:26:09.932Z,2.10
2023-04-11T15:29:04.138Z,1.80
2023-04-11T15:31:58.326Z,1.92
2023-04-11T15:34:52.912Z,1.35
2023-04-11T15:37:47.121Z,1.80
2023-04-11T15:40:41.619Z,1.80
2023-04-11T15:43:35.842Z,1.70
2023-04-11T15:46:31.288Z,1.40
2023-04-11T15:49:25.518Z,1.70
2023-04-11T15:52:19.660Z,2.28
2023-04-11T15:55:13.901Z,1.40
2023-04-11T15:58:08.261Z,1.52
2023-04-11T16:01:03.321Z,1.80
2023-04-11T16:03:58.050Z,1.73
2023-04-11T16:06:52.694Z,1.40
2023-04-11T16:09:47.718Z,2.15
2023-04-11T16:12:41.872Z,1.65
2023-04-11T16:15:36.836Z,2.55
2023-04-11T16:18:31.551Z,1.73
2023-04-11T16:21:26.190Z,1.73
2023-04-11T16:24:20.573Z,2.05
2023-04-11T16:27:14.916Z,2.30
2023-04-11T16:30:10.710Z,2.25
2023-04-11T16:33:04.929Z,2.08
2023-04-11T16:35:59.138Z,2.15
2023-04-11T16:38:53.444Z,2.08
2023-04-11T16:41:47.572Z,2.25
2023-04-11T16:44:41.816Z,2.80
2023-04-11T16:47:36.308Z,2.00
2023-04-11T16:50:30.550Z,2.90
2023-04-11T16:53:25.165Z,1.80
2023-04-11T16:56:19.372Z,2.20
2023-04-11T16:59:13.607Z,2.95
2023-04-11T17:02:08.290Z,2.85
2023-04-11T17:05:02.518Z,2.20
2023-04-11T17:07:57.118Z,2.22
2023-04-11T17:10:51.348Z,2.92
2023-04-11T17:13:46.825Z,2.78
2023-04-11T17:16:41.235Z,2.28
2023-04-11T17:19:35.325Z,2.10
2023-04-11T17:22:29.542Z,2.95
2023-04-11T17:25:23.660Z,3.22
2023-04-11T17:28:18.033Z,3.15
2023-04-11T17:31:16.931Z,3.35
2023-04-11T17:34:11.346Z,2.78
2023-04-11T17:37:05.538Z,2.75
2023-04-11T17:39:59.648Z,2.00
2023-04-11T17:42:53.737Z,2.60
2023-04-11T17:45:49.407Z,3.83
2023-04-11T17:48:44.349Z,3.08
2023-04-11T17:51:43.061Z,2.92
2023-04-11T17:54:43.180Z,2.78
2023-04-11T17:57:37.647Z,2.53
2023-04-11T18:00:35.057Z,2.45
2023-04-11T18:03:35.988Z,2.75
2023-04-11T18:06:30.802Z,2.22
2023-04-11T18:09:28.028Z,2.42
2023-04-11T18:15:25.105Z,2.83
2023-04-11T18:18:19.238Z,2.30
2023-04-11T18:21:13.465Z,3.00
2023-04-11T18:24:07.758Z,2.58
2023-04-11T18:27:01.969Z,2.65
2023-04-11T18:29:56.205Z,3.65
2023-04-11T18:32:52.892Z,2.53
2023-04-11T18:35:48.655Z,3.33
2023-04-11T18:38:43.654Z,2.92
2023-04-11T18:41:37.810Z,3.22
2023-04-11T18:44:32.762Z,2.35
2023-04-11T18:47:28.238Z,2.75
2023-04-11T18:50:23.791Z,2.78
2023-04-11T18:53:17.917Z,2.47
2023-04-11T18:56:12.157Z,3.03
2023-04-11T18:59:09.190Z,2.55
2023-04-11T19:02:04.971Z,1.90
2023-04-11T19:04:59.762Z,2.33
2023-04-11T19:07:54.188Z,2.42
2023-04-11T19:10:48.350Z,2.55
2023-04-11T19:13:42.575Z,2.70
2023-04-11T19:16:37.419Z,2.15
2023-04-11T19:19:32.669Z,2.35
2023-04-11T19:22:26.974Z,2.30
2023-04-11T19:25:21.318Z,2.20
2023-04-11T19:28:15.578Z,3.50
2023-04-11T19:31:09.759Z,2.15
2023-04-11T19:34:05.650Z,2.90
2023-04-11T19:36:59.799Z,2.40
2023-04-11T19:39:53.903Z,2.47
2023-04-11T19:42:48.107Z,2.50
2023-04-11T19:45:42.478Z,3.03
2023-04-11T19:48:36.721Z,2.60
2023-04-11T19:51:30.818Z,2.40
2023-04-11T19:54:25.006Z,2.92
2023-04-11T19:57:19.291Z,2.13
2023-04-11T20:00:14.883Z,2.45
2023-04-11T20:03:13.436Z,1.75
2023-04-11T20:06:07.941Z,1.75
2023-04-11T20:09:02.513Z,2.17
2023-04-11T20:11:57.932Z,2.17
2023-04-11T20:14:52.164Z,2.10
2023-04-11T20:17:46.528Z,2.13
2023-04-11T20:20:41.023Z,2.60
2023-04-11T20:23:36.555Z,2.03
2023-04-11T20:26:30.961Z,2.33
2023-04-11T20:29:25.958Z,2.50
2023-04-11T20:32:20.130Z,1.95
2023-04-11T20:35:14.379Z,2.40
2023-04-11T20:38:08.942Z,1.95
2023-04-11T20:41:04.903Z,1.50
2023-04-11T20:44:00.218Z,2.42
2023-04-11T20:46:55.239Z,2.35
2023-04-11T20:49:50.879Z,2.80
2023-04-11T20:52:47.159Z,2.10
2023-04-11T20:55:41.304Z,1.92
2023-04-11T20:58:35.486Z,2.42
2023-04-11T21:01:33.780Z,2.33
2023-04-11T21:04:29.494Z,2.53
2023-04-11T21:07:24.174Z,1.80
2023-04-11T21:10:18.393Z,2.47
2023-04-11T21:13:12.565Z,1.85
2023-04-11T21:16:07.009Z,2.00
2023-04-11T21:19:01.163Z,2.10
2023-04-11T21:21:55.387Z,2.03
2023-04-11T21:24:49.518Z,1.80
2023-04-11T21:27:44.533Z,2.13
2023-04-11T21:30:39.701Z,2.40
2023-04-11T21:33:33.912Z,2.03
2023-04-11T21:36:29.180Z,2.00
2023-04-11T21:39:23.529Z,1.55
2023-04-11T21:42:17.740Z,1.60
2023-04-11T21:45:12.006Z,1.30
2023-04-11T21:48:06.225Z,1.23
2023-04-11T21:51:00.522Z,1.30
2023-04-11T21:53:54.750Z,1.65
2023-04-11T21:56:49.006Z,1.02
2023-04-11T21:59:43.241Z,0.88
2023-04-11T22:02:38.770Z,1.35
2023-04-11T22:05:33.348Z,1.35
2023-04-11T22:08:30.546Z,1.98
2023-04-11T22:11:24.904Z,1.88
2023-04-11T22:14:19.414Z,1.52
2023-04-11T22:17:13.652Z,2.58
2023-04-11T22:20:10.410Z,2.35
2023-04-11T22:23:05.318Z,2.05
2023-04-11T22:26:00.458Z,2.50
2023-04-11T22:29:03.191Z,2.10
2023-04-11T22:31:59.405Z,2.15
2023-04-11T22:34:53.912Z,2.28
2023-04-11T22:37:48.293Z,2.63
2023-04-11T22:40:43.779Z,1.90
2023-04-11T22:43:37.918Z,1.67
2023-04-11T22:46:39.681Z,1.80
2023-04-11T22:49:41.535Z,1.58
2023-04-11T22:52:36.757Z,1.65
2023-04-11T22:55:37.479Z,2.00
2023-04-11T22:58:31.766Z,2.42
2023-04-11T23:01:26.049Z,1.73
2023-04-11T23:04:21.095Z,2.55
2023-04-11T23:07:15.262Z,2.63
2023-04-11T23:10:15.691Z,1.90
2023-04-11T23:13:09.869Z,1.98
2023-04-11T23:16:04.198Z,2.17
2023-04-11T23:18:58.788Z,2.05
2023-04-11T23:21:53.025Z,2.10
2023-04-11T23:24:47.402Z,2.25
2023-04-11T23:27:42.288Z,1.40
2023-04-11T23:30:37.372Z,1.83
2023-04-11T23:33:32.203Z,1.60
2023-04-11T23:36:26.403Z,2.17
2023-04-11T23:39:22.616Z,1.73
2023-04-11T23:42:17.020Z,1.80
2023-04-11T23:45:12.405Z,1.70
2023-04-11T23:48:06.979Z,1.75
2023-04-11T23:51:01.157Z,1.90
2023-04-11T23:53:55.536Z,1.50
2023-04-11T23:56:49.719Z,1.98
2023-04-11T23:59:44.207Z,1.90
